Tiempo atmosférico en la estación meteorológica de Viso Del Marqués, Ciudad Real (778 m.)



Fecha
DESCASC
Temp. máxima en grados centígrados (hora)
DESCASC
Temp. mínima en grados centígrados (hora)
DESCASC
Temp. media en grados centígrados
DESCASC
Racha de viento máxima en m/sg (hora)
DESCASC
Velocidad máxima media en intervalos de 10 minutos(hora)
DESCASC
Precipitaciones diarias en mm
DESCASC
Precipitaciones de 00:00 a 06:00 en mm
DESCASC
Precipitaciones de 06:00 a 12:00 en mm
DESCASC
Precipitaciones de 12:00 a 18:00 en mm
DESCASC
Precipitaciones de 18:00 a 24:00 en mm
DESCASC
14-07-2019 31.7 (17:50) 16 (00:00) 23.9 11.11 (17:40) 4.72 (02:50) 0 0 0 0 0
13-07-2019 33.4 (15:50) 21.1 (00:00) 27.3 14.17 (19:20) 10 (19:20) 0.1 0 0.1 0 0
12-07-2019 37.5 (18:20) 21.8 (00:00) 29.6 8.89 (18:30) 5.28 (18:20) 0 0 0 0 0
11-07-2019 38.2 (18:20) 18.4 (00:00) 28.3 6.67 (15:10) 3.89 (21:30) 0 0 0 0 0
10-07-2019 33.7 (18:10) 15.7 (00:00) 24.7 6.67 (16:20) 4.17 (22:20) 0 0 0 0 0
09-07-2019 27.8 (17:10) 13.8 (00:00) 20.8 6.11 (14:40) 2.78 (00:20) 0 0 0 0 0
08-07-2019 28.7 (15:10) 14.2 (00:00) 21.5 11.11 (19:20) 7.5 (16:10) 0 0 0 0 0
07-07-2019 33.3 (15:00) 17.7 (00:00) 25.5 12.78 (19:40) 9.17 (19:40) 0 0 0 0 0
06-07-2019 33.9 (16:30) 18.1 (00:00) 26 12.5 (17:40) 8.89 (14:30) 0 0 0 0 0
05-07-2019 33.5 (16:50) 16.6 (00:00) 25.1 11.67 (17:40) 7.5 (16:40) 0 0 0 0 0
04-07-2019 33.2 (16:00) 17.8 (00:00) 25.5 9.17 (17:20) 5.83 (20:40) 0 0 0 0 0
03-07-2019 33.6 (17:40) 19.1 (00:00) 26.3 10 (16:40) 6.11 (16:40) 0 0 0 0 0
02-07-2019 34 (16:40) 18.4 (05:00) 26.2 9.72 (23:40) 5.83 (20:40) 0 0 0 0 0
01-07-2019 34 (17:30) 19.5 (07:30) 26.8 8.89 (00:40) 6.11 (00:40) 0 0 0 0 0
30-06-2019 36.7 (18:20) 19.6 (00:00) 28.2 10.28 (15:40) 5.83 (15:40) 0 0 0 0 0
29-06-2019 39.5 (17:20) 21.1 (00:00) 30.3 7.5 (18:50) 5 (18:30) 0 0 0 0 0
28-06-2019 40.2 (16:10) 19.6 (00:00) 29.9 12.22 (15:30) 6.11 (13:10) 0 0 0 0 0
27-06-2019 37.4 (17:50) 17.7 (00:00) 27.6 11.11 (15:50) 7.5 (15:40) 0 0 0 0 0
26-06-2019 34.6 (17:10) 18.4 (00:00) 26.5 7.5 (19:40) 4.44 (18:20) 0 0 0 0 0
25-06-2019 34.4 (17:40) 16.9 (00:00) 25.7 8.89 (16:00) 5.28 (15:50) 0 0 0 0 0
24-06-2019 31.4 (15:40) 17.8 (00:00) 24.6 9.17 (17:30) 6.11 (17:30) 0 0 0 0 0
23-06-2019 34.6 (17:40) 16.8 (00:00) 25.7 10.28 (16:30) 5.28 (20:40) 0 0 0 0 0
22-06-2019 31.6 (15:50) 14.4 (00:00) 23 10.83 (17:00) 6.67 (17:00) 0 0 0 0 0
21-06-2019 29.6 (17:00) 14.1 (00:00) 21.9 8.61 (15:40) 4.17 (05:40) 0 0 0 0 0
20-06-2019 29.4 (16:50) 13.2 (00:00) 21.3 9.17 (21:00) 6.67 (20:10) 0 0 0 0 0
19-06-2019 29.6 (16:50) 13.5 (00:00) 21.6 9.17 (16:50) 5.83 (17:20) 0 0 0 0 0
18-06-2019 28.7 (15:30) 15.7 (00:00) 22.2 13.33 (16:50) 9.17 (17:00) 0 0 0 0 0
17-06-2019 31 (17:40) 13.3 (00:00) 22.2 12.78 (17:30) 5.56 (14:40) 0 0 0 0 0
16-06-2019 28.2 (13:50) 12.2 (00:00) 20.2 9.44 (11:00) 6.39 (11:10) 0 0 0 0 0

Gráficas

Temp. máximas Temp. mínimas Temp. medias Precipitaciones Rachas de viento máximas Velocidades máximas media en intervalos de 10 minutos

Datos horarios

Fecha y hora oficial Temperatura (ºC) Velocidad del viento (km/h) Dirección del viento Racha (km/h) Dirección de racha Precipitación (mm) Presión (hPa) Tendencia (hPa) Humedad (%)
2019-07-15 23:00:00 26.8 13 Oeste 20 Sudoeste 0 922.9 1.4 31
2019-07-15 22:00:00 28.5 16 Sudoeste 27 Sudoeste 0 922.6 0.9 29
2019-07-15 21:00:00 31.8 10 Oeste 27 Oeste 0 921.9 -0.2 22
2019-07-15 20:00:00 33.3 13 Oeste 29 Oeste 0 921.5 -0.5 22
2019-07-15 19:00:00 33.8 14 Oeste 31 Sudoeste 0 921.7 -0.4 21
2019-07-15 18:00:00 34.8 17 Oeste 32 Sudoeste 0 922.1 -0.7 22
2019-07-15 17:00:00 34.6 15 Oeste 28 Sudoeste 0 922 -1.2 22
2019-07-15 16:00:00 33.9 12 Oeste 28 Oeste 0 922.1 -1.4 24
2019-07-15 15:00:00 32.8 11 Noroeste 33 Oeste 0 922.8 -0.8 26
2019-07-15 14:00:00 32.9 12 Noroeste 27 Oeste 0 923.2 -0.6 27
2019-07-15 13:00:00 30.7 3 Norte 21 Oeste 0 923.5 0 30
2019-07-15 12:00:00 29.8 3 Nordeste 15 Sudeste 0 923.6 -0.1 32
2019-07-15 11:00:00 28.6 2 Sur 11 Sur 0 923.8 0.3 35
2019-07-15 10:00:00 26.6 0 Calma 8 Nordeste 0 923.5 0.5 37
2019-07-15 09:00:00 25 0 Calma 6 Nordeste 0 923.7 1 41
2019-07-15 08:00:00 22.4 2 Sudeste 5 Este 0 923.5 0.9 43
2019-07-15 07:00:00 21.2 0 Calma 13 Oeste 0 923 0.3 41
2019-07-15 06:00:00 21.9 10 Oeste 15 Oeste 0 922.7 -0.4 38
2019-07-15 05:00:00 22.1 12 Oeste 17 Oeste 0 922.6 -0.5 36
2019-07-15 04:00:00 23.5 9 Oeste 14 Oeste 0 922.7 -0.7 34
2019-07-15 03:00:00 24 7 Oeste 13 Oeste 0 923.1 -0.1 33
2019-07-15 02:00:00 23.4 9 Sudoeste 17 Oeste 0 923.1 0.1 33
2019-07-15 01:00:00 24 13 Oeste 17 Oeste 0 923.4 0.6 32
2019-07-15 00:00:00 23.8 10 Oeste 15 Oeste 0 923.2 0.5 30
2019-07-14 23:00:00 24.9 12 Oeste 15 Oeste 0 923 0.6 29
2019-07-14 22:00:00 26.5 9 Oeste 15 Oeste 0 922.8 0.7 27
2019-07-14 21:00:00 28.8 11 Oeste 23 Oeste 0 922.7 -0.1 26
2019-07-14 20:00:00 30.1 13 Noroeste 25 Noroeste 0 922.4 -0.4 25
2019-07-14 19:00:00 30.5 10 Oeste 25 Noroeste 0 922.1 -0.8 25
2019-07-14 18:00:00 29.8 10 Noroeste 40 Oeste 0 922.8 -0.4 27
2019-07-14 17:00:00 29.9 10 Noroeste 31 Oeste 0 922.8 -1 27
2019-07-14 16:00:00 30.5 12 Oeste 31 Oeste 0 922.9 -1.5 28
2019-07-14 15:00:00 29.9 8 Oeste 25 Noroeste 0 923.2 -1 30
2019-07-14 14:00:00 27.9 10 Oeste 23 Noroeste 0 923.8 -0.3 33
2019-07-14 13:00:00 26.5 12 Oeste 27 Sudoeste 0 924.4 0.7 37
2019-07-14 12:00:00 25.5 11 Oeste 25 Noroeste 0 924.2 0.7 39
2019-07-14 11:00:00 23.9 11 Oeste 29 Oeste 0 924.1 0.7 41
2019-07-14 10:00:00 22.4 12 Oeste 27 Oeste 0 923.7 0.2 44
2019-07-14 09:00:00 20.5 3 Noroeste 12 Norte 0 923.5 0.7 48
2019-07-14 08:00:00 16.6 6 Sudoeste 8 Sudoeste 0 923.4 0.1 51
2019-07-14 07:00:00 16 4 Sudoeste 9 Oeste 0 923.5 0.3 50
2019-07-14 06:00:00 17.8 0 Calma 7 Sudoeste 0 922.8 -0.7 46
2019-07-14 05:00:00 17.7 3 Sudoeste 9 Oeste 0 923.3 -0.5 45
2019-07-14 04:00:00 18.7 2 Nordeste 16 Sudoeste 0 923.2 -1.1 44
2019-07-14 03:00:00 19.1 17 Sudoeste 21 Oeste 0 923.5 -0.6 42
2019-07-14 02:00:00 19.1 6 Sudoeste 18 Oeste 0 923.8 0.2 43
2019-07-14 01:00:00 21.6 11 Oeste 26 Sudoeste 0 924.3 0.9 39
2019-07-14 00:00:00 22.4 19 Oeste 27 Sudoeste 0 924.1 1.9 36
2019-07-13 23:00:00 22.6 14 Sudoeste 20 Sudoeste 0 923.6 1.4 29
2019-07-13 22:00:00 23.9 14 Sudoeste 36 Sudoeste 0 923.4 1.5 22
2019-07-13 21:00:00 26.7 22 Sudoeste 44 Sudoeste 0 922.2 -0.1 21
2019-07-13 20:00:00 28.7 28 Sudoeste 51 Sudoeste 0 922.2 -0.9 21
2019-07-13 19:00:00 30.4 33 Sudoeste 48 Sudoeste 0 921.9 -1.6 21
2019-07-13 18:00:00 31.4 35 Sudoeste 50 Sudoeste 0 922.3 -2 20
2019-07-13 17:00:00 32.8 31 Sudoeste 46 Sudoeste 0 923.1 -1.7 22
2019-07-13 16:00:00 33.1 28 Sudoeste 42 Sur 0 923.5 -1.3 22
2019-07-13 15:00:00 33 24 Sudoeste 38 Sudoeste 0 924.3 -1 23
2019-07-13 14:00:00 32.2 13 Sudoeste 30 Sudoeste 0 924.8 -0.6 28
2019-07-13 13:00:00 30.7 18 Sur 30 Sudoeste 0 924.8 -0.4 31
2019-07-13 12:00:00 28.7 8 Noroeste 17 Noroeste 0 925.3 0.2 35
2019-07-13 11:00:00 28.1 0 Calma 13 Oeste 0 925.4 1.1 36
2019-07-13 10:00:00 26.6 3 Noroeste 9 Sudeste 0 925.2 0.9 40
2019-07-13 09:00:00 24 2 Sur 5 Este 0 925.1 0.9 46
2019-07-13 08:00:00 21.4 0 Calma 7 Nordeste 0.1 924.3 0 52
2019-07-13 07:00:00 21.4 5 Nordeste 22 Sudeste 0 924.3 -0.1 46
2019-07-13 06:00:00 22.6 15 Sudeste 31 Sudeste 0 924.2 -0.7 41
2019-07-13 05:00:00 25.3 2 Sudoeste 22 Sudeste 0 924.3 -1.6 35
2019-07-13 04:00:00 25.9 18 Sudeste 24 Sudeste 0 924.4 -2.3 34
2019-07-13 03:00:00 26.8 3 Este 20 Este 0 924.9 -0.7 32
2019-07-13 02:00:00 27.2 13 Sur 33 Sudeste 0 925.9 0.1 32
2019-07-13 01:00:00 28.6 18 Sur 33 Sur 0 926.7 2.2 26
2019-07-13 00:00:00 29.5 4 Noroeste 16 Sur 0 925.6 1.4 25
2019-07-12 23:00:00 29.6 12 Sur 18 Oeste 0 925.8 2 23
2019-07-12 22:00:00 31.4 12 Sudoeste 23 Sudoeste 0 924.5 0.7 22
2019-07-12 21:00:00 33.5 14 Sudoeste 22 Sur 0 924.2 0.5 20
2019-07-12 20:00:00 35.9 12 Sur 22 Sur 0 923.8 -0.4 18
2019-07-12 19:00:00 36.8 9 Sudeste 32 Sur 0 923.8 -1.1 18
2019-07-12 18:00:00 36.6 10 Este 21 Sudeste 0 923.7 -2.3 18
2019-07-12 17:00:00 35.9 8 Este 24 Nordeste 0 924.2 -2.2 20
2019-07-12 16:00:00 35.3 11 Nordeste 25 Nordeste 0 924.9 -1.8 22
2019-07-12 15:00:00 33.2 5 Norte 14 Oeste 0 926 -1 23
2019-07-12 14:00:00 32.7 5 Norte 13 Nordeste 0 926.4 0 24
2019-07-12 13:00:00 31.3 3 Nordeste 11 Oeste 0 926.7 0.2 25
2019-07-12 12:00:00 31.2 5 Oeste 11 Norte 0 927 0.9 25
2019-07-12 11:00:00 29.8 4 Nordeste 8 Norte 0 926.4 0.8 28
2019-07-12 10:00:00 27.2 3 Nordeste 8 Nordeste 0 926.5 1 32
2019-07-12 09:00:00 25.3 4 Nordeste 8 Norte 0 926.1 1 36
2019-07-12 08:00:00 22.7 5 Nordeste 8 Nordeste 0 925.6 0.4 41
2019-07-12 07:00:00 22.3 0 Calma 13 Sudeste 0 925.5 1 36
2019-07-12 06:00:00 22.6 4 Nordeste 6 Nordeste 0 925.1 0.6 30
2019-07-12 05:00:00 23.1 4 Nordeste 8 Nordeste 0 925.2 0.7 29
2019-07-12 04:00:00 23.1 6 Nordeste 9 Nordeste 0 924.5 0.1 27
2019-07-12 03:00:00 25.1 2 Noroeste 8 Este 0 924.5 -0.1 25
2019-07-12 02:00:00 27 0 Calma 5 Sudoeste 0 924.5 0.1 24
2019-07-12 01:00:00 27.9 3 Sur 4 Sur 0 924.4 0.9 22
2019-07-12 00:00:00 29.3 3 Sudoeste 6 Sur 0 924.6 1.6 22
2019-07-11 23:00:00 30.2 0 Calma 16 Norte 0 924.4 1.8 20
2019-07-11 22:00:00 32.4 13 Norte 19 Norte 0 923.5 1.1 19
2019-07-11 21:00:00 34.9 10 Norte 22 Norte 0 923 0.3 17
2019-07-11 20:00:00 36.6 3 Nordeste 19 Sudoeste 0 922.6 -0.8 16
2019-07-11 19:00:00 37 6 Noroeste 13 Norte 0 922.4 -1 16
2019-07-11 18:00:00 37.6 5 Este 17 Nordeste 0 922.7 -1 16
2019-07-11 17:00:00 36.7 7 Sudoeste 22 Sudeste 0 923.4 -0.8 16
2019-07-11 16:00:00 36.1 4 Sudeste 24 Oeste 0 923.4 -1.4 18
2019-07-11 15:00:00 35.1 0 Calma 17 Este 0 923.7 -1.1 19
2019-07-11 14:00:00 33.8 8 Este 18 Este 0 924.2 -0.7 21
2019-07-11 13:00:00 33 2 Nordeste 17 Este 0 924.8 0.2 22
2019-07-11 12:00:00 32.4 0 Calma 12 Norte 0 924.8 0.1 25
2019-07-11 11:00:00 28.9 4 Norte 9 Norte 0 924.9 0.6 27
2019-07-11 10:00:00 27.6 3 Nordeste 8 Nordeste 0 924.6 0.8 29
2019-07-11 09:00:00 24.9 4 Norte 7 Norte 0 924.7 1.2 32
2019-07-11 08:00:00 20.4 3 Nordeste 10 Este 0 924.3 1 36
2019-07-11 07:00:00 19 3 Este 9 Sudeste 0 923.8 0.1 37
2019-07-11 06:00:00 19.7 12 Sudeste 17 Sudeste 0 923.5 0 35
2019-07-11 05:00:00 20.3 5 Este 15 Este 0 923.3 -0.7 33
2019-07-11 04:00:00 21.7 6 Nordeste 8 Este 0 923.7 -0.1 31
2019-07-11 03:00:00 22.8 5 Nordeste 7 Nordeste 0 923.5 -0.6 29
2019-07-11 02:00:00 23.5 5 Sur 6 Sudeste 0 924 0.3 27
2019-07-11 01:00:00 25 4 Este 6 Sudoeste 0 923.8 1 25
2019-07-11 00:00:00 25.7 0 Calma 13 Norte 0 924.1 1.9 25
2019-07-10 23:00:00 27.6 11 Norte 23 Norte 0 923.7 1.7 23
2019-07-10 22:00:00 28.9 9 Norte 14 Norte 0 922.8 1 22
2019-07-10 21:00:00 31 5 Sur 17 Sur 0 922.2 0.2 18
2019-07-10 20:00:00 32.4 3 Sudeste 13 Este 0 922 -0.6 19
2019-07-10 19:00:00 33.3 0 Calma 15 Este 0 921.8 -1.1 19
2019-07-10 18:00:00 33.1 6 Noroeste 17 Norte 0 922 -1.5 20
2019-07-10 17:00:00 33.2 4 Sur 24 Noroeste 0 922.6 -1.3 20
2019-07-10 16:00:00 32.3 4 Nordeste 17 Norte 0 922.9 -1.3 22
2019-07-10 15:00:00 32.4 3 Sudeste 19 Sudeste 0 923.5 -1.2 22
2019-07-10 14:00:00 30.6 2 Oeste 19 Norte 0 923.9 -0.6 24
2019-07-10 13:00:00 29.5 7 Nordeste 22 Este 0 924.2 -0.4 25
2019-07-10 12:00:00 27.1 5 Noroeste 12 Oeste 0 924.7 0 29
2019-07-10 11:00:00 25.7 3 Norte 10 Nordeste 0 924.5 0.2 32
2019-07-10 10:00:00 22.6 4 Nordeste 9 Norte 0 924.6 0.2 36
2019-07-10 09:00:00 20 3 Sudoeste 5 Noroeste 0 924.7 0.9 40
2019-07-10 08:00:00 16.6 5 Oeste 7 Oeste 0 924.3 0.2 45
2019-07-10 07:00:00 16.5 0 Calma 6 Oeste 0 924.4 0.9 44
2019-07-10 06:00:00 16.3 4 Sudoeste 6 Sudoeste 0 923.8 -0.3 44
2019-07-10 05:00:00 17.5 3 Oeste 8 Oeste 0 924.1 0 42
2019-07-10 04:00:00 17.5 5 Sudoeste 9 Sudoeste 0 923.5 -0.8 42
2019-07-10 03:00:00 19.7 4 Noroeste 18 Noroeste 0 924.1 -0.5 39
2019-07-10 02:00:00 20.1 2 Sudoeste 5 Oeste 0 924.1 -0.1 37
2019-07-10 01:00:00 21.4 0 Calma 10 Oeste 0 924.3 0.6 36
2019-07-10 00:00:00 22 7 Oeste 10 Oeste 0 924.6 1.4 35
2019-07-09 23:00:00 21.8 8 Sur 12 Sudoeste 0 924.2 1.5 32
2019-07-09 22:00:00 23.7 5 Oeste 7 Oeste 0 923.7 1.1 29
2019-07-09 21:00:00 26.2 4 Noroeste 11 Oeste 0 923.2 0.5 27
2019-07-09 20:00:00 27.4 6 Oeste 16 Oeste 0 922.7 -0.5 26
2019-07-09 19:00:00 27.6 3 Oeste 13 Noroeste 0 922.6 -0.5 27
2019-07-09 18:00:00 27.1 6 Oeste 19 Oeste 0 922.7 -0.9 27
2019-07-09 17:00:00 26.9 7 Este 16 Noroeste 0 923.2 -0.9 27
2019-07-09 16:00:00 26.7 6 Sudeste 15 Sudoeste 0 923.1 -0.9 28
2019-07-09 15:00:00 26.3 8 Noroeste 22 Oeste 0 923.6 -0.7 29
2019-07-09 14:00:00 24.7 4 Oeste 18 Nordeste 0 924.1 -0.3 31
2019-07-09 13:00:00 24.9 4 Este 18 Noroeste 0 924 -0.4 32
2019-07-09 12:00:00 24 6 Oeste 21 Oeste 0 924.3 0 34
2019-07-09 11:00:00 22.4 5 Noroeste 14 Norte 0 924.4 0.1 38
2019-07-09 10:00:00 21.4 8 Oeste 16 Oeste 0 924.4 0.9 42
2019-07-09 09:00:00 19 3 Sudoeste 6 Sudoeste 0 924.3 1.2 45
2019-07-09 08:00:00 15.8 2 Sudoeste 8 Este 0 924.3 0.9 52
2019-07-09 07:00:00 14.1 3 Nordeste 7 Sudeste 0 923.5 0 57
2019-07-09 06:00:00 14.9 5 Este 9 Sudeste 0 923.1 -0.2 51
2019-07-09 05:00:00 15.5 4 Nordeste 7 Sur 0 923.4 -0.1 48
2019-07-09 04:00:00 16.3 6 Sudeste 9 Sudeste 0 923.5 -0.4 41
2019-07-09 03:00:00 17.5 2 Noroeste 14 Oeste 0 923.3 -0.6 38
2019-07-09 02:00:00 18 8 Oeste 12 Oeste 0 923.5 -0.1 37
2019-07-09 01:00:00 17.5 5 Sudoeste 15 Oeste 0 923.9 1.2 39
2019-07-09 00:00:00 19.4 8 Oeste 20 Oeste 0 923.9 2.7 37
2019-07-08 23:00:00 20.5 9 Oeste 26 Oeste 0 923.6 2.8 36
2019-07-08 22:00:00 21.2 21 Sudoeste 30 Sudoeste 0 922.7 2.2 34
2019-07-08 21:00:00 23.2 21 Sudoeste 31 Sudoeste 0 921.2 0.2 28
2019-07-08 20:00:00 24.3 20 Sudoeste 40 Sudoeste 0 920.8 -0.2 25
2019-07-08 19:00:00 26 22 Sudoeste 39 Sudoeste 0 920.5 -0.7 22
2019-07-08 18:00:00 26.5 21 Sudoeste 40 Sudoeste 0 921 -0.4 22
2019-07-08 17:00:00 28 21 Sudoeste 40 Sur 0 921 -0.8 23
2019-07-08 16:00:00 28.2 19 Sudoeste 35 Sudoeste 0 921.2 -0.7 23
2019-07-08 15:00:00 28.4 21 Sudoeste 34 Sudoeste 0 921.4 -1.4 24
2019-07-08 14:00:00 26.8 17 Sur 28 Sur 0 921.8 -1.5 26
2019-07-08 13:00:00 25.8 16 Oeste 27 Oeste 0 921.9 -1.5 28
2019-07-08 12:00:00 24.5 4 Sur 23 Sudeste 0 922.8 -0.3 36
2019-07-08 11:00:00 22.8 9 Sur 19 Sudeste 0 923.3 0.5 39
2019-07-08 10:00:00 22 5 Sudeste 11 Sudeste 0 923.4 0.7 41
2019-07-08 09:00:00 19.9 2 Sur 6 Sur 0 923.1 1 44
2019-07-08 08:00:00 16.5 0 Calma 11 Sudeste 0 922.8 0.7 53
2019-07-08 07:00:00 15.1 9 Este 12 Sudeste 0 922.7 0.7 54
2019-07-08 06:00:00 15.2 3 Sudoeste 6 Norte 0 922.1 0.1 51
2019-07-08 05:00:00 17.2 0 Calma 14 Este 0 922.1 -0.2 45
2019-07-08 04:00:00 18.2 6 Sudeste 12 Este 0 922 -0.8 42
2019-07-08 03:00:00 19.9 4 Norte 10 Sudoeste 0 922 0 37
2019-07-08 02:00:00 19.7 9 Sudoeste 13 Oeste 0 922.3 0.5 35
2019-07-08 01:00:00 22 7 Sur 15 Sudeste 0 922.8 2 30
2019-07-08 00:00:00 22.6 5 Sudeste 29 Sudoeste 0 922 1.3 28
2019-07-07 23:00:00 23.5 19 Sudoeste 35 Sudoeste 0 921.8 1.7 25
2019-07-07 22:00:00 25.2 26 Sudoeste 39 Sudoeste 0 920.8 0.7 27
2019-07-07 21:00:00 27.6 27 Sudoeste 43 Sudoeste 0 920.7 0.4 25
2019-07-07 20:00:00 29.2 30 Sudoeste 46 Sudoeste 0 920.1 -0.8 25
2019-07-07 19:00:00 30.2 26 Sudoeste 40 Sudoeste 0 920.1 -1.2 25
2019-07-07 18:00:00 30.1 24 Sudoeste 43 Sudoeste 0 920.3 -1.9 25
2019-07-07 17:00:00 31.8 27 Sudoeste 43 Sudoeste 0 920.9 -1.7 24
2019-07-07 16:00:00 33.1 15 Sudoeste 36 Sudoeste 0 921.3 -1.9 24
2019-07-07 15:00:00 31.4 18 Sudoeste 38 Sur 0 922.2 -1.2 24
2019-07-07 14:00:00 31.6 19 Sur 38 Sur 0 922.6 -1 25
2019-07-07 13:00:00 29.4 22 Sur 35 Sudoeste 0 923.2 -1.2 28
2019-07-07 12:00:00 29.1 9 Sudeste 20 Sur 0 923.4 -1.3 28
2019-07-07 11:00:00 26.1 3 Este 15 Sudeste 0 923.6 -1.1 32
2019-07-07 10:00:00 23.9 3 Nordeste 8 Norte 0 924.4 -0.3 34
2019-07-07 09:00:00 21.4 2 Sur 6 Sudoeste 0 924.7 0.6 37
2019-07-07 08:00:00 19.3 0 Calma 6 Norte 0 924.7 0.5 42
2019-07-07 07:00:00 18.2 4 Este 21 Sudeste 0 924.7 0.3 42
2019-07-07 06:00:00 19.3 3 Nordeste 10 Sudeste 0 924.1 -0.5 36
2019-07-07 05:00:00 19.9 2 Sudoeste 8 Sur 0 924.2 0.1 35
2019-07-07 04:00:00 20.6 4 Sudeste 10 Sudeste 0 924.4 0 34
2019-07-07 03:00:00 21.3 4 Oeste 8 Noroeste 0 924.6 0 32
2019-07-07 02:00:00 22.6 4 Noroeste 10 Noroeste 0 924.1 -0.8 30
2019-07-07 01:00:00 23.4 2 Oeste 17 Sudoeste 0 924.4 1.2 29
2019-07-07 00:00:00 23.4 7 Sudoeste 22 Sudoeste 0 924.6 1.4 29
2019-07-06 23:00:00 24.5 15 Sudoeste 23 Sudoeste 0 924.9 2.3 26
2019-07-06 22:00:00 25.9 13 Sur 26 Sur 0 923.2 0.2 24
2019-07-06 21:00:00 27.7 16 Sudoeste 25 Sudoeste 0 923.2 0.1 22
2019-07-06 20:00:00 29.5 18 Sudoeste 38 Sur 0 922.6 -1.3 22
2019-07-06 19:00:00 30.5 26 Sur 41 Sur 0 923 -0.8 19
2019-07-06 18:00:00 31.4 25 Sudoeste 45 Sur 0 923.1 -1 18
2019-07-06 17:00:00 31.6 28 Sudoeste 39 Sur 0 923.9 -0.6 19
2019-07-06 16:00:00 33.3 23 Sudoeste 43 Sur 0 923.8 -0.4 19
2019-07-06 15:00:00 32.2 22 Sudoeste 44 Sur 0 924.1 -0.7 19
2019-07-06 14:00:00 33.1 27 Sur 40 Sur 0 924.5 -0.2 22
2019-07-06 13:00:00 31 16 Sudoeste 31 Sudoeste 0 924.2 -0.9 24
2019-07-06 12:00:00 29.6 7 Sur 26 Sudeste 0 924.8 0.2 25
2019-07-06 11:00:00 28 6 Este 15 Este 0 924.7 -0.2 27
2019-07-06 10:00:00 25.9 5 Este 11 Este 0 925.1 0.1 28
2019-07-06 09:00:00 22.9 3 Nordeste 6 Nordeste 0 924.6 -0.4 32
2019-07-06 08:00:00 19.5 0 Calma 6 Nordeste 0 924.9 -0.3 34
2019-07-06 07:00:00 18.4 5 Nordeste 12 Sudeste 0 925 -0.3 32
2019-07-06 06:00:00 19.3 6 Este 9 Este 0 925 -0.9 31
2019-07-06 05:00:00 19.8 6 Sudoeste 15 Oeste 0 925.2 -1.3 29
2019-07-06 04:00:00 21.8 13 Oeste 20 Oeste 0 925.3 -1.1 27
2019-07-06 03:00:00 23.5 6 Noroeste 15 Oeste 0 925.9 -0.2 26
2019-07-06 02:00:00 23.4 9 Sudoeste 19 Sudoeste 0 926.5 0.5 28
2019-07-06 01:00:00 22.3 9 Sudoeste 11 Sudoeste 0 926.4 1.4 29
2019-07-06 00:00:00 23.1 8 Sur 13 Sudoeste 0 926.1 1.4 27
2019-07-05 23:00:00 24 8 Sudoeste 11 Sudoeste 0 926 1.3 26
2019-07-05 22:00:00 25.3 6 Sudoeste 18 Sudoeste 0 925 0.3 24
2019-07-05 21:00:00 28.1 15 Sudoeste 29 Sudoeste 0 924.7 -0.2 22
2019-07-05 20:00:00 30.2 17 Sudoeste 35 Sudoeste 0 924.7 -0.5 20
2019-07-05 19:00:00 31.5 19 Sudoeste 37 Sudoeste 0 924.7 -0.9 19
2019-07-05 18:00:00 32 22 Sudoeste 42 Sudoeste 0 924.9 -0.8 19
2019-07-05 17:00:00 33.4 23 Sudoeste 41 Sur 0 925.2 -0.7 19
2019-07-05 16:00:00 33.1 22 Sur 36 Sudoeste 0 925.6 -0.6 22
2019-07-05 15:00:00 31.8 18 Sudoeste 30 Sur 0 925.7 -0.9 21
2019-07-05 14:00:00 31.3 18 Sudoeste 35 Sur 0 925.9 -0.7 20
2019-07-05 13:00:00 30.2 13 Sur 22 Sur 0 926.2 -0.4 28
2019-07-05 12:00:00 28 4 Sudeste 16 Nordeste 0 926.6 -0.1 35
2019-07-05 11:00:00 25.5 5 Este 14 Este 0 926.6 -0.1 39
2019-07-05 10:00:00 23.4 5 Norte 9 Norte 0 926.6 0.2 42
2019-07-05 09:00:00 21.5 4 Nordeste 7 Nordeste 0 926.7 0.5 46
2019-07-05 08:00:00 19.1 0 Calma 6 Este 0 926.7 0.2 54
2019-07-05 07:00:00 17.3 7 Este 10 Este 0 926.4 -0.1 55
2019-07-05 06:00:00 19.2 0 Calma 5 Sur 0 926.2 -0.3 50
2019-07-05 05:00:00 18.5 4 Sudoeste 6 Sur 0 926.5 0.4 49
2019-07-05 04:00:00 20.7 2 Sudoeste 5 Sur 0 926.5 0.6 45
2019-07-05 03:00:00 21.3 2 Sudoeste 6 Sudoeste 0 926.5 0.9 42
2019-07-05 02:00:00 22.4 4 Noroeste 21 Sudoeste 0 926.1 1 41
2019-07-05 01:00:00 22.5 6 Sudoeste 13 Sudoeste 0 925.9 2.2 38
2019-07-05 00:00:00 23.4 9 Oeste 16 Oeste 0 925.6 1.9 36
2019-07-04 23:00:00 25.2 4 Noroeste 15 Oeste 0 925.1 2.2 34
2019-07-04 22:00:00 25.4 10 Sudoeste 26 Sudoeste 0 923.7 1.1 32
2019-07-04 21:00:00 27.2 19 Sudoeste 27 Sudoeste 0 923.7 0.6 28
2019-07-04 20:00:00 29.4 19 Sudoeste 29 Sudoeste 0 922.9 -1 26
2019-07-04 19:00:00 31.2 9 Sur 31 Sudoeste 0 922.6 -1.1 24
2019-07-04 18:00:00 31.7 11 Sudoeste 33 Sudoeste 0 923.1 -1 23
2019-07-04 17:00:00 31 17 Sudoeste 32 Sudoeste 0 923.9 -0.6 23
2019-07-04 16:00:00 31.3 12 Sudoeste 27 Sudoeste 0 923.7 -1.2 23
2019-07-04 15:00:00 30.7 8 Sudeste 31 Sur 0 924.1 -0.7 25
2019-07-04 14:00:00 29.9 14 Sur 29 Sur 0 924.5 -0.2 25
2019-07-04 13:00:00 29 13 Sur 27 Sur 0 924.9 0.3 28
2019-07-04 12:00:00 27.7 10 Sudeste 21 Este 0 924.8 0.7 32
2019-07-04 11:00:00 26 0 Calma 8 Sudeste 0 924.7 0.8 39
2019-07-04 10:00:00 24.2 3 Nordeste 9 Norte 0 924.6 0.5 43
2019-07-04 09:00:00 22.4 3 Este 7 Este 0 924.1 0.3 48
2019-07-04 08:00:00 19.6 3 Este 12 Este 0 923.9 0 54
2019-07-04 07:00:00 18.1 6 Nordeste 12 Este 0 924.1 0.7 56
2019-07-04 06:00:00 19.2 10 Sudeste 12 Sudeste 0 923.8 0.6 49
2019-07-04 05:00:00 21.3 2 Norte 5 Norte 0 923.9 0.9 42
2019-07-04 04:00:00 21.8 0 Calma 6 Nordeste 0 923.4 0.5 41
2019-07-04 03:00:00 22.3 0 Calma 6 Oeste 0 923.2 0.1 38
2019-07-04 02:00:00 23.1 0 Calma 11 Sudoeste 0 923 0.5 37
2019-07-04 01:00:00 23 7 Sur 18 Sudoeste 0 922.9 1 37
2019-07-04 00:00:00 23.9 15 Sudoeste 21 Sudoeste 0 923.1 1.9 34
2019-07-03 23:00:00 24.5 11 Sudoeste 18 Sudoeste 0 922.5 1.5 31
2019-07-03 22:00:00 25.9 14 Sudoeste 25 Sudoeste 0 921.9 0.8 26
2019-07-03 21:00:00 28.8 17 Sudoeste 25 Sudoeste 0 921.2 -0.1 21
2019-07-03 20:00:00 30.4 17 Sudoeste 32 Sudoeste 0 921 -0.6 20
2019-07-03 19:00:00 31.6 13 Sudoeste 36 Sur 0 921.1 -0.9 19
2019-07-03 18:00:00 31.9 21 Sudoeste 33 Sur 0 921.3 -0.9 19
2019-07-03 17:00:00 31.7 19 Sudoeste 36 Sudoeste 0 921.6 -1.4 20
2019-07-03 16:00:00 31.5 19 Sudoeste 31 Sur 0 922 -1.2 19
2019-07-03 15:00:00 32.6 15 Sur 29 Sur 0 922.2 -1 22
2019-07-03 14:00:00 30.6 9 Sudeste 27 Sur 0 923 -0.2 21
2019-07-03 13:00:00 29.6 10 Sur 23 Sudeste 0 923.2 -0.2 25
2019-07-03 12:00:00 29.2 10 Este 24 Sudeste 0 923.2 -0.2 29
2019-07-03 11:00:00 27.7 6 Norte 17 Norte 0 923.2 0.3 33
2019-07-03 10:00:00 25.9 9 Sudeste 20 Sudeste 0 923.4 0.2 37
2019-07-03 09:00:00 22.8 16 Sudeste 22 Sudeste 0 923.4 0.6 44
2019-07-03 08:00:00 20.9 7 Este 12 Este 0 922.9 0.2 45
2019-07-03 07:00:00 20 0 Calma 13 Sudeste 0 923.2 0.5 44
2019-07-03 06:00:00 19.6 7 Sudeste 12 Sudeste 0 922.8 -0.1 43
2019-07-03 05:00:00 19.4 10 Sudeste 19 Sudeste 0 922.7 -0.3 45
2019-07-03 04:00:00 20.9 9 Este 13 Este 0 922.7 -0.6 35
2019-07-03 03:00:00 22.4 5 Sudoeste 9 Sur 0 922.9 -0.3 32
2019-07-03 02:00:00 22.6 0 Calma 15 Oeste 0 923 0.5 32
2019-07-03 01:00:00 24.1 8 Oeste 25 Sudoeste 0 923.3 1.5 30
2019-07-03 00:00:00 25.5 6 Sudoeste 35 Sudoeste 0 923.2 1.7 29
2019-07-02 23:00:00 25.6 7 Oeste 23 Sudoeste 0 922.5 1.1 29
2019-07-02 22:00:00 26.2 13 Sudoeste 26 Sudoeste 0 921.8 0.5 29
2019-07-02 21:00:00 28.8 20 Sudoeste 30 Sudoeste 0 921.5 0.2 25
2019-07-02 20:00:00 31.5 17 Sur 25 Sudoeste 0 921.4 -0.7 18
2019-07-02 19:00:00 33.6 13 Sur 29 Sudeste 0 921.3 -1.1 15
2019-07-02 18:00:00 33.8 10 Sur 32 Sudoeste 0 921.3 -1.3 19
2019-07-02 17:00:00 33.9 9 Sur 29 Sur 0 922.1 -1.8 21
2019-07-02 16:00:00 31.3 9 Sudoeste 27 Sur 0 922.4 -1.5 23
2019-07-02 15:00:00 30.8 10 Sudeste 30 Sudeste 0 922.6 -1.4 24
2019-07-02 14:00:00 32.5 6 Nordeste 20 Norte 0 923.9 -0.4 22
2019-07-02 13:00:00 31.1 4 Sudeste 19 Este 0 923.9 -0.5 22
2019-07-02 12:00:00 29.9 3 Noroeste 15 Sudoeste 0 924 -0.5 23
2019-07-02 11:00:00 27.9 4 Sur 12 Sudoeste 0 924.3 0.1 25
2019-07-02 10:00:00 26.5 3 Noroeste 12 Sudoeste 0 924.4 0.3 29
2019-07-02 09:00:00 23.9 0 Calma 6 Sur 0 924.5 0.7 33
2019-07-02 08:00:00 21 0 Calma 10 Sudeste 0 924.2 0.4 42
2019-07-02 07:00:00 19.5 4 Norte 9 Este 0 924.1 -0.1 36
2019-07-02 06:00:00 20 4 Norte 13 Oeste 0 923.8 -0.7 32
2019-07-02 05:00:00 18.4 7 Sudoeste 10 Oeste 0 923.8 -1.3 37
2019-07-02 04:00:00 21.6 6 Noroeste 15 Oeste 0 924.2 -0.7 36
2019-07-02 03:00:00 22.5 6 Oeste 13 Oeste 0 924.5 -0.6 35
2019-07-02 02:00:00 22.9 7 Oeste 15 Oeste 0 925.1 -0.1 34
2019-07-02 01:00:00 22.8 10 Sudoeste 12 Sudoeste 0 924.9 0.7 35
2019-07-02 00:00:00 24.5 7 Sudoeste 13 Oeste 0 925.1 1.7 32
2019-07-01 23:00:00 26.6 8 Oeste 20 Sudoeste 0 925.2 1.9 30
2019-07-01 22:00:00 27.5 14 Sudoeste 23 Sudoeste 0 924.2 1.1 28
2019-07-01 21:00:00 29.7 16 Sudoeste 29 Sudoeste 0 923.4 -0.2 25
2019-07-01 20:00:00 31.9 13 Sudoeste 28 Sudoeste 0 923.3 -0.9 22
2019-07-01 19:00:00 33.4 8 Sur 25 Sur 0 923.1 -1.4 23
2019-07-01 18:00:00 33.4 13 Sudoeste 27 Sudoeste 0 923.6 -1.5 23
2019-07-01 17:00:00 32.9 12 Sudoeste 26 Sur 0 924.2 -1.8 25
2019-07-01 16:00:00 32.9 10 Sur 29 Sudoeste 0 924.5 -1.8 26
2019-07-01 15:00:00 30.2 12 Sudoeste 21 Sudoeste 0 925.1 -1.2 28
2019-07-01 14:00:00 32.9 6 Sudeste 22 Este 0 926 -0.5 26
2019-07-01 13:00:00 30.5 6 Este 13 Este 0 926.3 -0.8 30
2019-07-01 12:00:00 29 4 Nordeste 15 Nordeste 0 926.3 -0.9 32
2019-07-01 11:00:00 26.7 3 Norte 13 Este 0 926.5 -0.2 37
2019-07-01 10:00:00 26.6 3 Norte 12 Nordeste 0 927.1 0.7 40
2019-07-01 09:00:00 24.9 4 Sudoeste 10 Sudeste 0 927.2 0.8 45
2019-07-01 08:00:00 21.1 9 Sudeste 19 Sudeste 0 926.7 0.4 55
2019-07-01 07:00:00 19.8 6 Nordeste 10 Este 0 926.4 -0.2 53
2019-07-01 06:00:00 21.2 0 Calma 5 Norte 0 926.4 -0.3 48
2019-07-01 05:00:00 22.1 3 Norte 6 Sudoeste 0 926.3 -0.7 44
2019-07-01 04:00:00 22.3 4 Oeste 16 Sudeste 0 926.6 -0.4 41
2019-07-01 03:00:00 24.2 3 Noroeste 16 Oeste 0 926.7 0 37
2019-07-01 02:00:00 23.9 6 Sur 23 Oeste 0 927 1.2 39
2019-07-01 01:00:00 25.1 11 Oeste 32 Sudoeste 0 927 1.6 35
2019-07-01 00:00:00 26.8 21 Sudoeste 31 Sudoeste 0 926.7 1.4 29
2019-06-30 23:00:00 27 13 Sudoeste 19 Oeste 0 925.8 1 23
2019-06-30 22:00:00 28.7 9 Sudoeste 19 Sudoeste 0 925.4 0.6 21
2019-06-30 21:00:00 31.4 17 Sudoeste 26 Sudoeste 0 925.3 0.2 19
2019-06-30 20:00:00 33.7 13 Sudoeste 27 Sudoeste 0 924.8 -0.9 18
2019-06-30 19:00:00 35 15 Sudoeste 30 Sudoeste 0 924.8 -1.6 17
2019-06-30 18:00:00 36.1 15 Sur 29 Sudoeste 0 925.1 -1 16
2019-06-30 17:00:00 35.9 14 Sur 30 Sur 0 925.7 -1.1 16
2019-06-30 16:00:00 35.5 18 Sur 37 Sur 0 926.4 -0.5 16
2019-06-30 15:00:00 35.4 3 Sudeste 30 Sudoeste 0 926.1 -0.9 21
2019-06-30 14:00:00 34.3 7 Sudeste 20 Este 0 926.8 -0.2 21
2019-06-30 13:00:00 32.3 4 Sudeste 18 Sudeste 0 926.9 0.2 27
2019-06-30 12:00:00 31 9 Sur 15 Sudeste 0 927 0.7 29
2019-06-30 11:00:00 29.7 5 Este 14 Este 0 927 0.7 31
2019-06-30 10:00:00 27.4 5 Este 13 Nordeste 0 926.7 0.6 35
2019-06-30 09:00:00 25.4 5 Este 10 Nordeste 0 926.3 0.1 42
2019-06-30 08:00:00 21.9 6 Nordeste 9 Nordeste 0 926.3 0.5 46
2019-06-30 07:00:00 21 5 Nordeste 8 Nordeste 0 926.1 0.4 48
2019-06-30 06:00:00 21.8 5 Nordeste 8 Nordeste 0 926.2 0.7 44
2019-06-30 05:00:00 23.5 0 Calma 13 Sudoeste 0 925.8 0.4 34
2019-06-30 04:00:00 23.7 8 Sur 18 Sudoeste 0 925.7 0.5 30
2019-06-30 03:00:00 26.9 7 Noroeste 26 Sudoeste 0 925.5 0.6 26
2019-06-30 02:00:00 27.7 17 Sudoeste 32 Sudoeste 0 925.4 1.2 24
2019-06-30 01:00:00 28.6 13 Oeste 24 Oeste 0 925.2 2.2 22
2019-06-30 00:00:00 29.1 7 Sudoeste 20 Sur 0 924.9 2.1 22
2019-06-29 23:00:00 29.4 4 Oeste 17 Oeste 0 924.2 1.6 22
2019-06-29 22:00:00 30.9 13 Sudoeste 18 Sudoeste 0 923 0.6 19
2019-06-29 21:00:00 34.6 10 Sur 20 Sur 0 922.8 0.1 13
2019-06-29 20:00:00 37.6 14 Sur 26 Sudoeste 0 922.6 -0.4 12
2019-06-29 19:00:00 37.9 15 Sur 27 Sur 0 922.4 -1 14
2019-06-29 18:00:00 39.4 2 Norte 21 Este 0 922.7 -1.3 14
2019-06-29 17:00:00 38.6 6 Este 19 Nordeste 0 923 -1.6 15
2019-06-29 16:00:00 38 9 Nordeste 17 Noroeste 0 923.4 -1.9 17
2019-06-29 15:00:00 36.4 4 Nordeste 20 Nordeste 0 924 -1.6 18
2019-06-29 14:00:00 34.8 4 Nordeste 19 Este 0 924.6 -0.7 19
2019-06-29 13:00:00 33.4 8 Nordeste 19 Norte 0 925.3 -0.6 22
2019-06-29 12:00:00 31.7 4 Nordeste 17 Norte 0 925.6 0.4 27
2019-06-29 11:00:00 29.7 10 Norte 16 Nordeste 0 925.3 0.3 30
2019-06-29 10:00:00 28 6 Norte 13 Norte 0 925.9 1 35
2019-06-29 09:00:00 25.5 2 Norte 8 Nordeste 0 925.2 0.3 39
2019-06-29 08:00:00 22.6 4 Nordeste 8 Nordeste 0 925 0.4 44
2019-06-29 07:00:00 21.1 6 Este 9 Este 0 924.9 0.2 42
2019-06-29 06:00:00 22.6 3 Este 17 Sudeste 0 924.9 0 39
2019-06-29 05:00:00 22.8 14 Sudeste 17 Sudeste 0 924.6 -0.1 37
2019-06-29 04:00:00 23.8 2 Norte 12 Este 0 924.7 -0.3 34
2019-06-29 03:00:00 25 0 Calma 18 Sur 0 924.9 0.1 33
2019-06-29 02:00:00 25.3 12 Sur 16 Sur 0 924.7 0 33
2019-06-29 01:00:00 24.6 10 Sudoeste 19 Sudeste 0 925 1.3 32
2019-06-29 00:00:00 27.4 12 Este 21 Sudeste 0 924.8 1.7 28
2019-06-28 23:00:00 29.4 13 Este 25 Este 0 924.7 2.1 24
2019-06-28 22:00:00 31.5 10 Sudeste 26 Sur 0 923.7 1.2 18
2019-06-28 21:00:00 34.2 14 Sur 27 Sur 0 923.1 0.5 14
2019-06-28 20:00:00 36.9 20 Sur 29 Sur 0 922.6 -0.4 12
2019-06-28 19:00:00 38.7 17 Sudeste 31 Sur 0 922.5 -0.8 --
2019-06-28 18:00:00 39.9 14 Sur 35 Sur 0 922.6 -1.1 --
2019-06-28 17:00:00 39.3 18 Sudeste 40 Sur 0 923 -1.1 --
2019-06-28 16:00:00 39.6 19 Sudeste 44 Sur 0 923.3 -1.2 --
2019-06-28 15:00:00 39.4 18 Sudeste 34 Este 0 923.7 -1.2 12
2019-06-28 14:00:00 38 17 Sudeste 37 Sudeste 0 924.1 -1.2 12
2019-06-28 13:00:00 36.8 20 Sudeste 32 Sudeste 0 924.5 -1 14
2019-06-28 12:00:00 34.8 21 Sudeste 31 Sudeste 0 924.9 -0.8 15
2019-06-28 11:00:00 31.9 8 Este 15 Sudeste 0 925.3 -0.3 22
2019-06-28 10:00:00 27.9 2 Nordeste 7 Norte 0 925.5 0 32
2019-06-28 09:00:00 25.3 0 Calma 5 Nordeste 0 925.7 0.1 39
2019-06-28 08:00:00 21.8 0 Calma 8 Nordeste 0 925.6 0 42
2019-06-28 07:00:00 20.5 7 Este 14 Nordeste 0 925.5 -1 44
2019-06-28 06:00:00 20.1 8 Nordeste 12 Nordeste 0 925.6 -0.9 43
2019-06-28 05:00:00 22.7 5 Sudeste 15 Sudeste 0 925.6 -1.1 37
2019-06-28 04:00:00 24.1 10 Sudeste 17 Sudeste 0 926.5 -0.4 35
2019-06-28 03:00:00 23.6 2 Este 9 Este 0 926.5 0 40
2019-06-28 02:00:00 24.1 3 Sudeste 6 Sudeste 0 926.7 0.5 39
2019-06-28 01:00:00 25.7 3 Norte 6 Nordeste 0 926.9 2 36
2019-06-28 00:00:00 26.8 0 Calma 13 Sudoeste 0 926.5 2.3 35
2019-06-27 23:00:00 27.1 11 Sur 18 Sur 0 926.2 2.2 32
2019-06-27 22:00:00 29.6 7 Sur 19 Sudeste 0 924.9 1.3 28
2019-06-27 21:00:00 32 13 Sur 20 Sudoeste 0 924.2 0.4 25
2019-06-27 20:00:00 34.5 14 Sudoeste 24 Sur 0 924 -0.4 21
2019-06-27 19:00:00 35.9 12 Sur 25 Este 0 923.6 -1.2 20
2019-06-27 18:00:00 37.1 16 Sudeste 27 Sudeste 0 923.8 -1.7 19
2019-06-27 17:00:00 36.1 14 Sudeste 29 Sur 0 924.4 -1.5 20
2019-06-27 16:00:00 35.7 22 Sudeste 40 Sudeste 0 924.8 -1.4 22
2019-06-27 15:00:00 33.2 14 Sudeste 27 Sur 0 925.5 -0.5 24
2019-06-27 14:00:00 31.8 14 Sudeste 26 Sudeste 0 925.9 -0.3 26
2019-06-27 13:00:00 29.9 10 Sudeste 38 Sudeste 0 926.2 0.1 30
2019-06-27 12:00:00 28.5 12 Sudeste 24 Sudeste 0 926 0.7 32
2019-06-27 11:00:00 26.7 12 Sudeste 18 Sudeste 0 926.2 0.9 36
2019-06-27 10:00:00 22.7 8 Sudeste 15 Sudeste 0 926.1 1.3 45
2019-06-27 09:00:00 20.8 3 Este 5 Este 0 925.3 0.3 48
2019-06-27 08:00:00 19.4 0 Calma 4 Sur 0 925.3 0.5 50
2019-06-27 07:00:00 17.8 4 Sudoeste 7 Sudoeste 0 924.8 -0.5 50
2019-06-27 06:00:00 20.5 3 Norte 5 Norte 0 925 -1.1 45
2019-06-27 05:00:00 19.9 0 Calma 6 Nordeste 0 924.8 -1.5 45
2019-06-27 04:00:00 21.5 3 Nordeste 5 Nordeste 0 925.3 -1.4 42
2019-06-27 03:00:00 22.1 4 Norte 10 Este 0 926.1 -0.1 41
2019-06-27 02:00:00 22.9 6 Nordeste 14 Este 0 926.3 0.7 37
2019-06-27 01:00:00 24.3 5 Sudeste 14 Sudeste 0 926.7 2 35
2019-06-27 00:00:00 24.9 9 Sudeste 13 Sudeste 0 926.2 2.3 33
2019-06-26 23:00:00 25.3 7 Sudoeste 14 Sudoeste 0 925.6 2 32
2019-06-26 22:00:00 27.6 12 Sudoeste 18 Sudoeste 0 924.7 1.2 29
2019-06-26 21:00:00 30.3 14 Sudoeste 20 Sudoeste 0 923.9 0 25
2019-06-26 20:00:00 33.4 12 Sur 27 Sur 0 923.6 -0.5 24
2019-06-26 19:00:00 33.2 14 Sudoeste 23 Sudoeste 0 923.5 -1 23
2019-06-26 18:00:00 33.8 14 Sur 25 Sur 0 923.9 -1.1 22
2019-06-26 17:00:00 33.8 12 Sudoeste 24 Sudoeste 0 924.1 -1.5 22
2019-06-26 16:00:00 33.3 8 Sur 27 Sur 0 924.5 -1.7 24
2019-06-26 15:00:00 32.5 12 Sur 22 Sur 0 925 -1.6 25
2019-06-26 14:00:00 31.4 12 Sur 24 Nordeste 0 925.6 -1 27
2019-06-26 13:00:00 30 8 Sudeste 19 Sudeste 0 926.2 -0.6 29
2019-06-26 12:00:00 27.2 6 Nordeste 15 Este 0 926.6 0.5 31
2019-06-26 11:00:00 26.3 6 Nordeste 13 Este 0 926.6 0.7 33
2019-06-26 10:00:00 24.9 5 Nordeste 12 Nordeste 0 926.8 1.3 35
2019-06-26 09:00:00 23.4 0 Calma 6 Este 0 926.1 0.8 37
2019-06-26 08:00:00 20.1 3 Nordeste 6 Nordeste 0 925.9 0.9 42
2019-06-26 07:00:00 18.7 5 Nordeste 7 Nordeste 0 925.5 0.8 42
2019-06-26 06:00:00 19.4 4 Nordeste 7 Norte 0 925.3 0.3 41
2019-06-26 05:00:00 20.5 2 Nordeste 7 Nordeste 0 925 -0.3 39
2019-06-26 04:00:00 21.7 4 Este 7 Este 0 924.7 -0.2 36
2019-06-26 03:00:00 23.3 0 Calma 6 Oeste 0 925 0.2 34
2019-06-26 02:00:00 23.9 2 Sudoeste 14 Sudoeste 0 925.3 1 33
2019-06-26 01:00:00 23.9 2 Sur 9 Sudoeste 0 924.9 1.3 32
2019-06-26 00:00:00 24.1 6 Sudoeste 21 Sudoeste 0 924.8 1.8 29
2019-06-25 23:00:00 26.3 14 Sudoeste 21 Sudoeste 0 924.3 1.6 27
2019-06-25 22:00:00 26.9 14 Sudoeste 24 Sudoeste 0 923.6 0.9 25
2019-06-25 21:00:00 29.8 17 Sudoeste 22 Sudoeste 0 923 0 23
2019-06-25 20:00:00 31.6 15 Sudoeste 29 Sudoeste 0 922.7 -0.6 22
2019-06-25 19:00:00 33.3 13 Sudoeste 31 Sudoeste 0 922.7 -1.2 22
2019-06-25 18:00:00 34.2 11 Sur 26 Sudoeste 0 923 -1.4 21
2019-06-25 17:00:00 33.4 10 Sudoeste 29 Sudoeste 0 923.3 -1.5 21
2019-06-25 16:00:00 33 16 Sur 32 Sur 0 923.9 -1.3 22
2019-06-25 15:00:00 31.5 10 Sudoeste 27 Sur 0 924.4 -0.8 22
2019-06-25 14:00:00 31.3 10 Sur 24 Sur 0 924.8 -0.6 22
2019-06-25 13:00:00 29.7 8 Sur 28 Sudeste 0 925.2 -0.3 27
2019-06-25 12:00:00 28 9 Sudeste 26 Sudeste 0 925.2 0 30
2019-06-25 11:00:00 26.6 2 Sudeste 10 Sudeste 0 925.4 0.3 32
2019-06-25 10:00:00 24.3 3 Nordeste 8 Nordeste 0 925.5 0.9 36
2019-06-25 09:00:00 22 0 Calma 5 Este 0 925.2 1 39
2019-06-25 08:00:00 19.5 2 Este 9 Este 0 925.1 1.1 44
2019-06-25 07:00:00 17.3 5 Nordeste 8 Nordeste 0 924.6 0.4 44
2019-06-25 06:00:00 18 3 Nordeste 8 Nordeste 0 924.2 0.1 40
2019-06-25 05:00:00 18.3 3 Nordeste 8 Nordeste 0 924 -0.4 37
2019-06-25 04:00:00 19.1 5 Nordeste 7 Nordeste 0 924.2 -0.3 35
2019-06-25 03:00:00 20.6 0 Calma 6 Sur 0 924.1 0 34
2019-06-25 02:00:00 21.5 2 Este 7 Oeste 0 924.4 0.4 32
2019-06-25 01:00:00 22.5 3 Oeste 9 Sudoeste 0 924.5 1.1 30
2019-06-25 00:00:00 22.4 5 Sudoeste 13 Sudoeste 0 924.1 1.2 29
2019-06-24 23:00:00 23.1 10 Sudoeste 18 Sur 0 924 1.3 27
2019-06-24 22:00:00 24.5 14 Sudoeste 23 Sudoeste 0 923.4 1.1 23
2019-06-24 21:00:00 26.8 18 Sudoeste 26 Sudoeste 0 922.9 0.5 24
2019-06-24 20:00:00 28.1 19 Sudoeste 31 Sur 0 922.7 -0.2 25
2019-06-24 19:00:00 29.7 19 Sudoeste 32 Sudoeste 0 922.3 -0.1 24
2019-06-24 18:00:00 30.3 21 Sudoeste 33 Sudoeste 0 922.4 -0.5 24
2019-06-24 17:00:00 30.2 12 Sur 31 Sur 0 922.9 0 25
2019-06-24 16:00:00 30.1 12 Sudoeste 23 Sur 0 922.4 -0.9 25
2019-06-24 15:00:00 29.8 12 Sur 23 Sudoeste 0 922.9 -0.4 27
2019-06-24 14:00:00 29.8 13 Sur 22 Sur 0 922.9 -0.6 28
2019-06-24 13:00:00 28.5 5 Sudeste 14 Sur 0 923.3 -0.2 30
2019-06-24 12:00:00 26.7 3 Norte 13 Sudoeste 0 923.3 0.2 31
2019-06-24 11:00:00 25.7 2 Oeste 10 Norte 0 923.5 0.4 32
2019-06-24 10:00:00 24.9 6 Norte 15 Sudeste 0 923.5 0.4 34
2019-06-24 09:00:00 23 13 Sudeste 18 Sudeste 0 923.1 0.8 42
2019-06-24 08:00:00 19.3 8 Sudeste 15 Sudeste 0 923.1 0.7 50
2019-06-24 07:00:00 18 7 Este 13 Sudeste 0 923.1 0.4 47
2019-06-24 06:00:00 19.3 3 Nordeste 7 Noroeste 0 922.3 -0.4 42
2019-06-24 05:00:00 19.7 0 Calma 11 Sudeste 0 922.4 -0.2 38
2019-06-24 04:00:00 21.2 5 Sudeste 9 Sur 0 922.7 0 34
2019-06-24 03:00:00 22.9 3 Sudoeste 16 Sur 0 922.7 0.3 30
2019-06-24 02:00:00 23.7 8 Sur 14 Sudoeste 0 922.6 0.4 28
2019-06-24 01:00:00 23.3 9 Sudoeste 15 Sudoeste 0 922.7 1.6 26
2019-06-24 00:00:00 23.3 8 Sur 10 Sudoeste 0 922.4 1.8 26
2019-06-23 23:00:00 25 5 Sudoeste 17 Sudoeste 0 922.2 2.3 25
2019-06-23 22:00:00 26.7 15 Sudoeste 25 Sudoeste 0 921.1 1.3 23
2019-06-23 21:00:00 28.9 18 Sudoeste 26 Sudoeste 0 920.6 0.2 21
2019-06-23 20:00:00 31.5 12 Sudoeste 26 Sudoeste 0 919.9 -0.9 19
2019-06-23 19:00:00 33.3 14 Sur 31 Sur 0 919.8 -1.7 17
2019-06-23 18:00:00 33.9 15 Sur 31 Sudoeste 0 920.4 -1.7 16
2019-06-23 17:00:00 33.5 5 Sudoeste 37 Sur 0 920.8 -1.6 18
2019-06-23 16:00:00 33.7 6 Sudeste 25 Oeste 0 921.5 -1.6 18
2019-06-23 15:00:00 32.6 4 Sudeste 24 Sur 0 922.1 -1.4 19
2019-06-23 14:00:00 31 10 Sur 21 Sur 0 922.4 -1.2 21
2019-06-23 13:00:00 30.2 3 Sudeste 28 Sur 0 923.1 -0.4 22
2019-06-23 12:00:00 28.7 8 Sur 23 Sudoeste 0 923.5 0 25
2019-06-23 11:00:00 26.6 3 Sudoeste 15 Sudoeste 0 923.6 0.1 27
2019-06-23 10:00:00 25.5 6 Sur 14 Sudeste 0 923.5 0.3 31
2019-06-23 09:00:00 23.5 0 Calma 8 Noroeste 0 923.5 0.6 32
2019-06-23 08:00:00 20.1 4 Noroeste 9 Oeste 0 923.5 0.7 37
2019-06-23 07:00:00 16.8 3 Norte 9 Sudeste 0 923.2 0.6 38
2019-06-23 06:00:00 18.4 4 Este 10 Este 0 922.9 -0.1 34
2019-06-23 05:00:00 19.5 0 Calma 8 Sudeste 0 922.8 0 30
2019-06-23 04:00:00 19.7 2 Este 9 Este 0 922.6 -0.5 29
2019-06-23 03:00:00 21.5 0 Calma 10 Sudoeste 0 923 -0.2 26
2019-06-23 02:00:00 22 2 Sudoeste 10 Sudoeste 0 922.8 0.1 26
2019-06-23 01:00:00 21.9 7 Sur 9 Sur 0 923.1 1 25
2019-06-23 00:00:00 21.9 6 Sudoeste 11 Sudoeste 0 923.2 1.2 25
2019-06-22 23:00:00 22.8 5 Sudoeste 12 Sudoeste 0 922.7 0.9 24
2019-06-22 22:00:00 24.3 5 Sur 20 Oeste 0 922.1 0.2 22
2019-06-22 21:00:00 27.2 14 Sudoeste 22 Sudoeste 0 922 -0.3 19
2019-06-22 20:00:00 28.2 15 Sudoeste 28 Sudoeste 0 921.8 -0.8 18
2019-06-22 19:00:00 30.2 13 Sudoeste 37 Sudoeste 0 921.9 -1.3 18
2019-06-22 18:00:00 30.5 14 Sudoeste 33 Sudoeste 0 922.3 -1.2 18
2019-06-22 17:00:00 30 24 Sudoeste 39 Sudoeste 0 922.6 -1.6 17
2019-06-22 16:00:00 30.6 14 Sur 31 Sur 0 923.2 -1.6 18
2019-06-22 15:00:00 30.3 17 Sudoeste 31 Sudoeste 0 923.5 -1 20
2019-06-22 14:00:00 29.3 15 Sudoeste 36 Sudoeste 0 924.2 -0.5 20
2019-06-22 13:00:00 28.5 13 Sur 29 Sur 0 924.8 0.2 23
2019-06-22 12:00:00 26.6 12 Sur 29 Sudoeste 0 924.5 -0.1 25
2019-06-22 11:00:00 25.6 15 Sur 27 Sur 0 924.7 0.4 24
2019-06-22 10:00:00 25.9 10 Sudeste 15 Sudeste 0 924.6 0.4 25
2019-06-22 09:00:00 22.2 3 Este 5 Nordeste 0 924.6 0.4 28
2019-06-22 08:00:00 16.7 4 Nordeste 9 Nordeste 0 924.3 0.5 32
2019-06-22 07:00:00 15.2 4 Nordeste 6 Nordeste 0 924.2 0.1 32
2019-06-22 06:00:00 16.1 0 Calma 6 Sudoeste 0 924.2 0.2 31
2019-06-22 05:00:00 17.3 3 Oeste 5 Oeste 0 923.8 -0.7 28
2019-06-22 04:00:00 17.2 0 Calma 5 Sudoeste 0 924.1 -0.5 28
2019-06-22 03:00:00 18.3 3 Oeste 7 Oeste 0 924 -0.6 26
2019-06-22 02:00:00 19.7 6 Oeste 8 Oeste 0 924.5 0.4 25
2019-06-22 01:00:00 19.4 6 Oeste 13 Oeste 0 924.6 1.2 25
2019-06-22 00:00:00 21.2 10 Oeste 13 Oeste 0 924.6 1.6 22
2019-06-21 23:00:00 22.4 8 Oeste 11 Oeste 0 924.1 1.3 21
2019-06-21 22:00:00 24.1 4 Noroeste 16 Noroeste 0 923.4 1 19
2019-06-21 21:00:00 26.1 9 Oeste 24 Oeste 0 923 0.5 19
2019-06-21 20:00:00 27.4 12 Oeste 25 Sudoeste 0 922.8 0.4 19
2019-06-21 19:00:00 28.2 11 Noroeste 26 Oeste 0 922.4 -0.5 19
2019-06-21 18:00:00 28.5 4 Oeste 28 Oeste 0 922.5 -0.8 20
2019-06-21 17:00:00 29.6 13 Oeste 27 Oeste 0 922.4 -1 21
2019-06-21 16:00:00 28.8 8 Sudoeste 31 Sudoeste 0 922.9 -1.1 22
2019-06-21 15:00:00 27.8 11 Oeste 24 Sudoeste 0 923.3 -1 24
2019-06-21 14:00:00 27.1 11 Oeste 23 Sudoeste 0 923.4 -1 26
2019-06-21 13:00:00 25.1 8 Oeste 19 Sudoeste 0 924 -0.4 30
2019-06-21 12:00:00 24.6 3 Sudeste 18 Sudoeste 0 924.3 0.3 32
2019-06-21 11:00:00 22.5 5 Sudoeste 14 Oeste 0 924.4 0.4 35
2019-06-21 10:00:00 21.6 2 Sudoeste 6 Sudoeste 0 924.4 0.6 37
2019-06-21 09:00:00 18.7 0 Calma 6 Norte 0 924 0.6 42
2019-06-21 08:00:00 16.5 6 Este 9 Este 0 924 0.8 48
2019-06-21 07:00:00 14.6 0 Calma 20 Oeste 0 923.8 0.5 49
2019-06-21 06:00:00 14.6 14 Oeste 20 Oeste 0 923.4 0.1 48
2019-06-21 05:00:00 15.7 13 Oeste 17 Oeste 0 923.2 -0.1 44
2019-06-21 04:00:00 16.3 10 Oeste 18 Oeste 0 923.3 0.2 42
2019-06-21 03:00:00 17.5 10 Oeste 18 Oeste 0 923.3 0.1 41
2019-06-21 02:00:00 18 5 Oeste 15 Oeste 0 923.3 0.8 41
2019-06-21 01:00:00 18.5 11 Oeste 14 Oeste 0 923.1 1.2 38
2019-06-21 00:00:00 19.2 7 Sudoeste 18 Sudoeste 0 923.2 2 37
2019-06-20 23:00:00 20 13 Sudoeste 26 Sudoeste 0 922.5 1.1 35
2019-06-20 22:00:00 21 18 Sudoeste 31 Sudoeste 0 921.9 0.9 33
2019-06-20 21:00:00 23.4 23 Sudoeste 33 Sudoeste 0 921.2 0.2 30
2019-06-20 20:00:00 25.7 24 Sudoeste 32 Sudoeste 0 921.4 0.2 25
2019-06-20 19:00:00 27.6 16 Sudoeste 30 Sur 0 921 -0.5 22
2019-06-20 18:00:00 27.8 15 Sudoeste 28 Sudoeste 0 921 -1.3 22
2019-06-20 17:00:00 28.6 13 Sudoeste 31 Sudoeste 0 921.2 -1.9 22
2019-06-20 16:00:00 28.4 11 Sudoeste 21 Sudoeste 0 921.5 -1.6 23
2019-06-20 15:00:00 26.8 4 Sudoeste 20 Sur 0 922.3 -1.1 28
2019-06-20 14:00:00 27 2 Sur 30 Sudoeste 0 923.1 -0.4 30
2019-06-20 13:00:00 25.2 5 Sur 18 Sudeste 0 923.1 -0.2 31
2019-06-20 12:00:00 23.6 5 Nordeste 19 Este 0 923.4 0 33
2019-06-20 11:00:00 22.4 6 Sudeste 15 Sudeste 0 923.5 0.1 35
2019-06-20 10:00:00 20.9 4 Norte 8 Noroeste 0 923.3 0 37
2019-06-20 09:00:00 19.9 0 Calma 5 Nordeste 0 923.4 0.1 43
2019-06-20 08:00:00 16.2 3 Nordeste 6 Nordeste 0 923.4 -0.1 54
2019-06-20 07:00:00 13.9 0 Calma 16 Este 0 923.3 -0.4 55
2019-06-20 06:00:00 14.1 6 Nordeste 9 Nordeste 0 923.3 -0.6 48
2019-06-20 05:00:00 15.8 0 Calma 4 Sudoeste 0 923.5 -0.9 45
2019-06-20 04:00:00 15.3 2 Sudoeste 5 Sudoeste 0 923.7 -0.5 45
2019-06-20 03:00:00 16.8 4 Sudoeste 5 Sudoeste 0 923.9 -0.4 42
2019-06-20 02:00:00 17.1 6 Oeste 10 Oeste 0 924.4 0.6 39
2019-06-20 01:00:00 19.2 3 Oeste 13 Noroeste 0 924.2 1 35
2019-06-20 00:00:00 20.7 8 Oeste 13 Noroeste 0 924.3 1.4 33
2019-06-19 23:00:00 21.8 5 Noroeste 20 Sudoeste 0 923.8 1.2 29
2019-06-19 22:00:00 22 12 Sudoeste 22 Sudoeste 0 923.2 0.6 26
2019-06-19 21:00:00 24.5 16 Sur 24 Sur 0 922.9 0 24
2019-06-19 20:00:00 26.4 17 Sudoeste 33 Sur 0 922.6 -0.7 20
2019-06-19 19:00:00 28 15 Sudoeste 29 Sudoeste 0 922.6 -1.3 20
2019-06-19 18:00:00 28.6 14 Sudoeste 32 Sudoeste 0 922.9 -1.3 19
2019-06-19 17:00:00 28.5 19 Sudoeste 33 Sudoeste 0 923.3 -1.3 20
2019-06-19 16:00:00 27.5 16 Sudoeste 31 Oeste 0 923.9 -1.2 21
2019-06-19 15:00:00 27.4 12 Oeste 30 Sudoeste 0 924.2 -1.1 23
2019-06-19 14:00:00 25.8 10 Sudoeste 28 Sudoeste 0 924.6 -0.5 25
2019-06-19 13:00:00 25 4 Oeste 18 Este 0 925.1 0 32
2019-06-19 12:00:00 23.2 6 Sudeste 18 Sudoeste 0 925.3 -0.6 37
2019-06-19 11:00:00 21.3 6 Sudeste 14 Sudeste 0 925.1 -0.1 39
2019-06-19 10:00:00 20.3 4 Nordeste 9 Noroeste 0 925.1 0.1 44
2019-06-19 09:00:00 18.6 3 Nordeste 7 Este 0 925.9 1.4 49
2019-06-19 08:00:00 16 4 Nordeste 9 Sudeste 0 925.2 0.7 57
2019-06-19 07:00:00 13.6 6 Este 15 Este 0 925 0.4 63
2019-06-19 06:00:00 14.1 5 Este 9 Este 0 924.5 -0.1 55
2019-06-19 05:00:00 15.1 2 Este 7 Nordeste 0 924.5 -0.3 50
2019-06-19 04:00:00 15.7 5 Este 9 Este 0 924.6 -0.2 46
2019-06-19 03:00:00 16.9 2 Noroeste 19 Oeste 0 924.6 -0.7 45
2019-06-19 02:00:00 17.3 10 Oeste 19 Sudoeste 0 924.8 0.3 37
2019-06-19 01:00:00 17.8 3 Sudoeste 19 Sur 0 924.8 0.7 32
2019-06-19 00:00:00 17.2 9 Sudoeste 21 Sudoeste 0 925.3 1.5 27
2019-06-18 23:00:00 19.3 14 Sudoeste 22 Sudoeste 0 924.5 0.7 21
2019-06-18 22:00:00 21.1 17 Sudoeste 30 Sur 0 924.1 0.5 16
2019-06-18 21:00:00 23.4 21 Sudoeste 39 Sudoeste 0 923.8 0.3 13
2019-06-18 20:00:00 25.2 28 Sudoeste 43 Sudoeste 0 923.8 0.5 12
2019-06-18 19:00:00 26.5 28 Sudoeste 40 Sur 0 923.6 -0.3 12
2019-06-18 18:00:00 27.3 28 Sudoeste 48 Sudoeste 0 923.5 -0.3 12
2019-06-18 17:00:00 28.4 33 Sudoeste 48 Sudoeste 0 923.3 -0.8 13
2019-06-18 16:00:00 27.4 32 Sudoeste 44 Sudoeste 0 923.9 -0.5 16
2019-06-18 15:00:00 27.7 26 Sur 43 Sudoeste 0 923.8 -1 19
2019-06-18 14:00:00 27.3 26 Sudoeste 44 Sudoeste 0 924.1 -0.3 20
2019-06-18 13:00:00 26.8 25 Sur 38 Sudoeste 0 924.4 0.3 18
2019-06-18 12:00:00 25.4 16 Sur 32 Sur 0 924.8 0.2 21
2019-06-18 11:00:00 24 15 Sur 27 Sur 0 924.4 0 26
2019-06-18 10:00:00 22.9 13 Sur 19 Sur 0 924.1 -0.1 29
2019-06-18 09:00:00 19.1 3 Nordeste 6 Nordeste 0 924.6 0.3 34
2019-06-18 08:00:00 17.5 4 Norte 6 Nordeste 0 924.4 0.5 33
2019-06-18 07:00:00 16.7 0 Calma 6 Nordeste 0 924.2 0.1 32
2019-06-18 06:00:00 15.7 3 Norte 7 Este 0 924.3 -0.1 30
2019-06-18 05:00:00 17.2 0 Calma 5 Nordeste 0 923.9 -0.4 28
2019-06-18 04:00:00 18 4 Nordeste 7 Nordeste 0 924.1 -0.3 27
2019-06-18 03:00:00 19 6 Sudoeste 16 Sudoeste 0 924.4 -0.3 26
2019-06-18 02:00:00 18.9 7 Sur 12 Sudoeste 0 924.3 0.3 25
2019-06-18 01:00:00 19.6 7 Sur 10 Sudoeste 0 924.4 1 25
2019-06-18 00:00:00 20.1 8 Sudoeste 11 Sudoeste 0 924.7 1.3 22
2019-06-17 23:00:00 21.9 7 Sudoeste 12 Sudoeste 0 924 0.8 22
2019-06-17 22:00:00 22.7 10 Sudoeste 21 Sudoeste 0 923.4 0.4 22
2019-06-17 21:00:00 25.7 19 Sudoeste 30 Sudoeste 0 923.4 0.1 19
2019-06-17 20:00:00 27.7 16 Sudoeste 30 Sudoeste 0 923.2 -0.6 17
2019-06-17 19:00:00 29.3 16 Sudoeste 35 Sudoeste 0 923 -1.3 17
2019-06-17 18:00:00 29.8 12 Sur 46 Sudoeste 0 923.3 -1.5 15
2019-06-17 17:00:00 29.6 19 Sudoeste 33 Sur 0 923.8 -1.9 16
2019-06-17 16:00:00 29.5 19 Sur 31 Sur 0 924.3 -1.7 16
2019-06-17 15:00:00 28.1 18 Sur 35 Sudoeste 0 924.8 -1.5 19
2019-06-17 14:00:00 27.6 13 Sur 27 Sur 0 925.7 -1.3 21
2019-06-17 13:00:00 26.3 6 Sur 17 Sur 0 926 -1.1 24
2019-06-17 12:00:00 25.2 7 Este 15 Este 0 926.3 -0.4 25
2019-06-17 11:00:00 23.2 4 Noroeste 12 Noroeste 0 927 -0.2 25
2019-06-17 10:00:00 21.5 3 Norte 6 Nordeste 0 927.1 0 30
2019-06-17 09:00:00 19.3 2 Nordeste 6 Nordeste 0 926.7 0.4 34
2019-06-17 08:00:00 15.4 3 Norte 8 Norte 0 927.2 0.8 38
2019-06-17 07:00:00 14.4 4 Nordeste 14 Sudeste 0 927.1 0.3 37
2019-06-17 06:00:00 15.4 9 Este 14 Este 0 926.3 -0.5 34
2019-06-17 05:00:00 15 5 Nordeste 7 Nordeste 0 926.4 -0.3 32
2019-06-17 04:00:00 17.2 5 Noroeste 14 Sudoeste 0 926.8 -0.2 32
2019-06-17 03:00:00 17.6 3 Norte 15 Sudoeste 0 926.8 0.1 30
2019-06-17 02:00:00 18.2 12 Sudoeste 16 Sudoeste 0 926.7 0 28
2019-06-17 01:00:00 19 9 Sudoeste 14 Sudoeste 0 927 0.9 23
2019-06-17 00:00:00 19.6 4 Sur 14 Sudoeste 0 926.7 0.8 23
2019-06-16 23:00:00 19.2 6 Sur 8 Sur 0 926.7 1.1 22
2019-06-16 22:00:00 21.6 2 Sur 8 Sudoeste 0 926.1 0.5 20
2019-06-16 21:00:00 22.3 7 Sudoeste 22 Sudoeste 0 925.9 0.5 19
2019-06-16 20:00:00 24.3 13 Sudoeste 23 Sudoeste 0 925.6 -0.4 18
2019-06-16 19:00:00 25.2 16 Sudoeste 29 Sudoeste 0 925.6 -0.1 16
2019-06-16 18:00:00 27.1 10 Sur 28 Sur 0 925.4 -0.6 15
2019-06-16 17:00:00 25.8 15 Sudoeste 26 Sudoeste 0 926 -0.4 17
2019-06-16 16:00:00 26.2 10 Sur 27 Sur 0 925.7 -0.7 18
2019-06-16 15:00:00 25.8 17 Sur 29 Sudeste 0 926 -0.6 17
2019-06-16 14:00:00 27 21 Sur 32 Sur 0 926.4 -0.1 15
2019-06-16 13:00:00 25.6 17 Sur 31 Sur 0 926.4 0 18
2019-06-16 12:00:00 26.4 23 Sur 33 Sur 0 926.6 0.3 19
2019-06-16 11:00:00 24.5 23 Sur 34 Sur 0 926.5 0.3 21
2019-06-16 10:00:00 22.1 3 Este 9 Sudeste 0 926.4 0.7 23
2019-06-16 09:00:00 18.6 4 Nordeste 7 Nordeste 0 926.3 0.8 27
2019-06-16 08:00:00 15.6 2 Sur 4 Sudoeste 0 926.2 0.7 30
2019-06-16 07:00:00 13.4 4 Sudoeste 5 Sudoeste 0 925.7 -0.2 31
2019-06-16 06:00:00 12.6 4 Sudoeste 6 Sudoeste 0 925.5 -1.2 31
2019-06-16 05:00:00 13.8 4 Sudoeste 5 Sudoeste 0 925.5 -1.8 29
2019-06-16 04:00:00 14 4 Sur 5 Sur 0 925.9 -1.4 28
2019-06-16 03:00:00 15.8 3 Nordeste 5 Nordeste 0 926.7 -0.7 26
2019-06-16 02:00:00 16.8 0 Calma 4 Sudoeste 0 927.3 0.3 25
2019-06-16 01:00:00 16.3 3 Sudoeste 5 Sudoeste 0 927.3 1 25
2019-06-16 00:00:00 18.6 3 Sudoeste 7 Oeste 0 927.4 1.5 22